METAR AND TAF INFORMATION
METAR FOR AGGC
ADDS - METARS form results

(2210 UTC 20 February 2020)
Data provider http://aviationweather.gov/metar/data/
 
Forecast for: AGGC (CHOISEUL BAY , SB)
Text: TAF AGGC 201720Z 2018/2118 25015KT 9999 SCT018
Forecast period: 1800 UTC 20 February 2020 to 1800 UTC 21 February 2020
Forecast type: FROM: standard forecast or significant change
Winds: from the WSW (250 degrees) at 17 MPH (15 knots; 7.7 m/s)
Visibility: 6 or more miles 10+ km)
Ceiling: at least 12,000 feet AGL
Clouds: scattered clouds at 1800 feet AGL
Weather: no significant weather forecast for this period
Text: PROB30 INTER 2018/2102 5000 TSSH SCT016 FEW017CB BKN026 Q 1008 1010 1010 1008
Forecast period: 1800 UTC 20 February 2020 to 0200 UTC 21 February 2020
Forecast type: TEMPORARY: The following changes expected for less than half the time period
Visibility: 3 miles (5 km)
Ceiling: 2600 feet AGL
Clouds: scattered clouds at 1600 feet AGL
few clouds at 1700 feet AGL
broken clouds at 2600 feet AGL
Weather: SH TS  (showers, thunderstorm)

 AIRPORT MAP

 RUNWAY INFORMATION
Runway 13 Runway length 2164 ft Runway width 82 ft
Runway elevation 0 ft Runway displaced threshold 0 ft Runway heading 0
Runway 31 Runway length 2164 ft Runway width 82 ft
Runway elevation 0 ft Runway displaced threshold 0 ft Runway heading 0

 AIRPORT FREQUENCIES

 AIRPORT NEAR NAVIGATION AIDS



Powered by Virtual Airlines Manager [v2.6.2]